sensor_id;sensor_type;location;lat;lon;timestamp;temperature;humidity
16700;DHT22;8466;52.286;21.124;2023-04-24T00:01:03;10.40;99.90
16700;DHT22;8466;52.286;21.124;2023-04-24T00:03:34;10.40;99.90
16700;DHT22;8466;52.286;21.124;2023-04-24T00:06:04;10.40;99.90
16700;DHT22;8466;52.286;21.124;2023-04-24T00:08:34;10.30;99.90
16700;DHT22;8466;52.286;21.124;2023-04-24T00:11:03;10.30;99.90
16700;DHT22;8466;52.286;21.124;2023-04-24T00:13:32;10.20;99.90
16700;DHT22;8466;52.286;21.124;2023-04-24T00:16:02;10.20;99.90
16700;DHT22;8466;52.286;21.124;2023-04-24T00:18:30;10.10;99.90
16700;DHT22;8466;52.286;21.124;2023-04-24T00:20:59;10.10;99.90
16700;DHT22;8466;52.286;21.124;2023-04-24T00:23:28;10.10;99.90
16700;DHT22;8466;52.286;21.124;2023-04-24T00:25:57;10.00;99.90
16700;DHT22;8466;52.286;21.124;2023-04-24T00:28:25;10.00;99.90
16700;DHT22;8466;52.286;21.124;2023-04-24T00:30:54;10.00;99.90
16700;DHT22;8466;52.286;21.124;2023-04-24T00:33:24;9.90;99.90
16700;DHT22;8466;52.286;21.124;2023-04-24T00:35:53;9.80;99.90
16700;DHT22;8466;52.286;21.124;2023-04-24T00:38:22;9.80;99.90
16700;DHT22;8466;52.286;21.124;2023-04-24T00:40:50;9.70;99.90
16700;DHT22;8466;52.286;21.124;2023-04-24T00:43:21;9.70;99.90
16700;DHT22;8466;52.286;21.124;2023-04-24T00:45:49;9.70;99.90
16700;DHT22;8466;52.286;21.124;2023-04-24T00:48:18;9.70;99.90
16700;DHT22;8466;52.286;21.124;2023-04-24T00:50:49;9.60;99.90
16700;DHT22;8466;52.286;21.124;2023-04-24T00:53:18;9.60;99.90
16700;DHT22;8466;52.286;21.124;2023-04-24T00:55:47;9.50;99.90
16700;DHT22;8466;52.286;21.124;2023-04-24T00:58:15;9.40;99.90
16700;DHT22;8466;52.286;21.124;2023-04-24T01:00:44;9.40;99.90
16700;DHT22;8466;52.286;21.124;2023-04-24T01:03:13;9.30;99.90
16700;DHT22;8466;52.286;21.124;2023-04-24T01:05:42;9.30;99.90
16700;DHT22;8466;52.286;21.124;2023-04-24T01:08:13;9.20;99.90
16700;DHT22;8466;52.286;21.124;2023-04-24T01:10:44;9.20;99.90
16700;DHT22;8466;52.286;21.124;2023-04-24T01:13:13;9.20;99.90
16700;DHT22;8466;52.286;21.124;2023-04-24T01:15:42;9.20;99.90
16700;DHT22;8466;52.286;21.124;2023-04-24T01:18:10;9.10;99.90
16700;DHT22;8466;52.286;21.124;2023-04-24T01:20:40;9.20;99.90
16700;DHT22;8466;52.286;21.124;2023-04-24T01:23:11;9.10;99.90
16700;DHT22;8466;52.286;21.124;2023-04-24T01:25:40;9.20;99.90
16700;DHT22;8466;52.286;21.124;2023-04-24T01:28:08;9.20;99.90
16700;DHT22;8466;52.286;21.124;2023-04-24T01:30:37;9.20;99.90
16700;DHT22;8466;52.286;21.124;2023-04-24T01:33:06;9.20;99.90
16700;DHT22;8466;52.286;21.124;2023-04-24T01:35:35;9.30;99.90
16700;DHT22;8466;52.286;21.124;2023-04-24T01:38:04;9.30;99.90
16700;DHT22;8466;52.286;21.124;2023-04-24T01:40:35;9.30;99.90
16700;DHT22;8466;52.286;21.124;2023-04-24T01:43:03;9.30;99.90
16700;DHT22;8466;52.286;21.124;2023-04-24T01:45:32;9.30;99.90
16700;DHT22;8466;52.286;21.124;2023-04-24T01:48:01;9.30;99.90
16700;DHT22;8466;52.286;21.124;2023-04-24T01:50:30;9.30;99.90
16700;DHT22;8466;52.286;21.124;2023-04-24T01:52:59;9.20;99.90
16700;DHT22;8466;52.286;21.124;2023-04-24T01:55:28;9.20;99.90
16700;DHT22;8466;52.286;21.124;2023-04-24T01:57:59;9.10;99.90
16700;DHT22;8466;52.286;21.124;2023-04-24T02:00:29;9.20;99.90
16700;DHT22;8466;52.286;21.124;2023-04-24T02:02:58;9.10;99.90
16700;DHT22;8466;52.286;21.124;2023-04-24T02:05:29;9.10;99.90
16700;DHT22;8466;52.286;21.124;2023-04-24T02:07:57;9.00;99.90
16700;DHT22;8466;52.286;21.124;2023-04-24T02:10:26;9.00;99.90
16700;DHT22;8466;52.286;21.124;2023-04-24T02:12:55;9.00;99.90
16700;DHT22;8466;52.286;21.124;2023-04-24T02:15:25;9.00;99.90
16700;DHT22;8466;52.286;21.124;2023-04-24T02:17:54;9.00;99.90
16700;DHT22;8466;52.286;21.124;2023-04-24T02:20:23;9.00;99.90
16700;DHT22;8466;52.286;21.124;2023-04-24T02:22:51;9.00;99.90
16700;DHT22;8466;52.286;21.124;2023-04-24T02:25:20;8.90;99.90
16700;DHT22;8466;52.286;21.124;2023-04-24T02:27:49;8.90;99.90
16700;DHT22;8466;52.286;21.124;2023-04-24T02:30:18;8.90;99.90
16700;DHT22;8466;52.286;21.124;2023-04-24T02:32:48;8.80;99.90
16700;DHT22;8466;52.286;21.124;2023-04-24T02:35:17;8.80;99.90
16700;DHT22;8466;52.286;21.124;2023-04-24T02:37:46;8.90;99.90
16700;DHT22;8466;52.286;21.124;2023-04-24T02:40:14;8.90;99.90
16700;DHT22;8466;52.286;21.124;2023-04-24T02:42:43;8.90;99.90
16700;DHT22;8466;52.286;21.124;2023-04-24T02:45:12;8.90;99.90
16700;DHT22;8466;52.286;21.124;2023-04-24T02:47:40;8.90;99.90
16700;DHT22;8466;52.286;21.124;2023-04-24T02:50:11;8.80;99.90
16700;DHT22;8466;52.286;21.124;2023-04-24T02:52:39;8.90;99.90
16700;DHT22;8466;52.286;21.124;2023-04-24T02:55:08;8.90;99.90
16700;DHT22;8466;52.286;21.124;2023-04-24T02:57:37;9.00;99.90
16700;DHT22;8466;52.286;21.124;2023-04-24T03:00:07;9.00;99.90
16700;DHT22;8466;52.286;21.124;2023-04-24T03:02:36;9.00;99.90
16700;DHT22;8466;52.286;21.124;2023-04-24T03:05:06;8.90;99.90
16700;DHT22;8466;52.286;21.124;2023-04-24T03:07:37;9.00;99.90
16700;DHT22;8466;52.286;21.124;2023-04-24T03:10:07;9.00;99.90
16700;DHT22;8466;52.286;21.124;2023-04-24T03:12:36;8.90;99.90
16700;DHT22;8466;52.286;21.124;2023-04-24T03:15:05;8.80;99.90
16700;DHT22;8466;52.286;21.124;2023-04-24T03:17:34;8.70;99.90
16700;DHT22;8466;52.286;21.124;2023-04-24T03:20:05;8.70;99.90
16700;DHT22;8466;52.286;21.124;2023-04-24T03:22:36;8.60;99.90
16700;DHT22;8466;52.286;21.124;2023-04-24T03:25:06;8.60;99.90
16700;DHT22;8466;52.286;21.124;2023-04-24T03:27:36;8.60;99.90
16700;DHT22;8466;52.286;21.124;2023-04-24T03:30:07;8.50;99.90
16700;DHT22;8466;52.286;21.124;2023-04-24T03:32:36;8.50;99.90
16700;DHT22;8466;52.286;21.124;2023-04-24T03:35:07;8.40;99.90
16700;DHT22;8466;52.286;21.124;2023-04-24T03:37:37;8.40;99.90
16700;DHT22;8466;52.286;21.124;2023-04-24T03:40:07;8.40;99.90
16700;DHT22;8466;52.286;21.124;2023-04-24T03:42:36;8.40;99.90
16700;DHT22;8466;52.286;21.124;2023-04-24T03:45:06;8.40;99.90
16700;DHT22;8466;52.286;21.124;2023-04-24T03:47:35;8.40;99.90
16700;DHT22;8466;52.286;21.124;2023-04-24T03:50:05;8.40;99.90
16700;DHT22;8466;52.286;21.124;2023-04-24T03:52:33;8.50;99.90
16700;DHT22;8466;52.286;21.124;2023-04-24T03:55:04;8.60;99.90
16700;DHT22;8466;52.286;21.124;2023-04-24T03:57:33;8.60;99.90
16700;DHT22;8466;52.286;21.124;2023-04-24T04:00:04;8.80;99.90
16700;DHT22;8466;52.286;21.124;2023-04-24T04:02:33;8.80;99.90
16700;DHT22;8466;52.286;21.124;2023-04-24T04:05:02;9.20;99.90
16700;DHT22;8466;52.286;21.124;2023-04-24T04:07:31;9.60;99.90
16700;DHT22;8466;52.286;21.124;2023-04-24T04:09:59;9.80;99.90
16700;DHT22;8466;52.286;21.124;2023-04-24T04:12:29;9.80;99.90
16700;DHT22;8466;52.286;21.124;2023-04-24T04:14:58;9.80;99.90
16700;DHT22;8466;52.286;21.124;2023-04-24T04:17:27;9.80;99.90
16700;DHT22;8466;52.286;21.124;2023-04-24T04:19:56;9.80;99.90
16700;DHT22;8466;52.286;21.124;2023-04-24T04:22:25;9.80;99.90
16700;DHT22;8466;52.286;21.124;2023-04-24T04:24:53;10.00;99.90
16700;DHT22;8466;52.286;21.124;2023-04-24T04:27:22;10.30;99.90
16700;DHT22;8466;52.286;21.124;2023-04-24T04:29:52;10.50;99.90
16700;DHT22;8466;52.286;21.124;2023-04-24T04:32:21;10.70;99.90
16700;DHT22;8466;52.286;21.124;2023-04-24T04:34:50;10.90;99.90
16700;DHT22;8466;52.286;21.124;2023-04-24T04:37:20;11.00;99.90
16700;DHT22;8466;52.286;21.124;2023-04-24T04:39:49;11.10;99.90
16700;DHT22;8466;52.286;21.124;2023-04-24T04:42:18;11.20;99.90
16700;DHT22;8466;52.286;21.124;2023-04-24T04:44:51;11.20;99.90
16700;DHT22;8466;52.286;21.124;2023-04-24T04:47:22;11.20;99.90
16700;DHT22;8466;52.286;21.124;2023-04-24T04:49:51;11.10;99.90
16700;DHT22;8466;52.286;21.124;2023-04-24T04:52:20;11.30;99.90
16700;DHT22;8466;52.286;21.124;2023-04-24T04:54:52;11.40;99.90
16700;DHT22;8466;52.286;21.124;2023-04-24T04:57:21;11.50;99.90
16700;DHT22;8466;52.286;21.124;2023-04-24T04:59:50;11.50;99.90
16700;DHT22;8466;52.286;21.124;2023-04-24T05:02:20;11.60;99.90
16700;DHT22;8466;52.286;21.124;2023-04-24T05:04:49;11.60;99.90
16700;DHT22;8466;52.286;21.124;2023-04-24T05:07:18;11.70;99.90
16700;DHT22;8466;52.286;21.124;2023-04-24T05:09:46;11.70;99.90
16700;DHT22;8466;52.286;21.124;2023-04-24T05:12:15;11.80;99.90
16700;DHT22;8466;52.286;21.124;2023-04-24T05:14:44;11.90;99.90
16700;DHT22;8466;52.286;21.124;2023-04-24T05:17:13;12.00;99.90
16700;DHT22;8466;52.286;21.124;2023-04-24T05:19:43;12.10;99.90
16700;DHT22;8466;52.286;21.124;2023-04-24T05:22:12;12.10;99.90
16700;DHT22;8466;52.286;21.124;2023-04-24T05:24:42;12.20;99.90
16700;DHT22;8466;52.286;21.124;2023-04-24T05:27:12;12.20;99.90
16700;DHT22;8466;52.286;21.124;2023-04-24T05:29:42;12.30;99.90
16700;DHT22;8466;52.286;21.124;2023-04-24T05:32:12;12.40;99.90
16700;DHT22;8466;52.286;21.124;2023-04-24T05:34:43;12.50;99.90
16700;DHT22;8466;52.286;21.124;2023-04-24T05:37:12;12.50;99.90
16700;DHT22;8466;52.286;21.124;2023-04-24T05:43:23;12.80;99.90
16700;DHT22;8466;52.286;21.124;2023-04-24T05:46:06;12.90;99.90
16700;DHT22;8466;52.286;21.124;2023-04-24T05:48:57;13.10;99.90
16700;DHT22;8466;52.286;21.124;2023-04-24T05:51:35;13.20;99.90
16700;DHT22;8466;52.286;21.124;2023-04-24T05:54:07;13.40;99.90
16700;DHT22;8466;52.286;21.124;2023-04-24T06:00:05;13.70;99.90
16700;DHT22;8466;52.286;21.124;2023-04-24T06:02:48;13.80;99.90
16700;DHT22;8466;52.286;21.124;2023-04-24T06:05:26;14.00;99.90
16700;DHT22;8466;52.286;21.124;2023-04-24T06:08:16;14.20;99.90
16700;DHT22;8466;52.286;21.124;2023-04-24T06:10:47;14.40;99.90
16700;DHT22;8466;52.286;21.124;2023-04-24T06:13:31;14.60;99.90
16700;DHT22;8466;52.286;21.124;2023-04-24T06:16:06;14.40;99.90
16700;DHT22;8466;52.286;21.124;2023-04-24T06:18:37;15.00;99.90
16700;DHT22;8466;52.286;21.124;2023-04-24T06:21:10;15.20;99.90
16700;DHT22;8466;52.286;21.124;2023-04-24T06:23:48;15.40;99.90
16700;DHT22;8466;52.286;21.124;2023-04-24T06:26:17;15.60;99.90
16700;DHT22;8466;52.286;21.124;2023-04-24T06:28:49;15.80;99.90
16700;DHT22;8466;52.286;21.124;2023-04-24T06:31:18;16.00;99.90
16700;DHT22;8466;52.286;21.124;2023-04-24T06:33:50;16.00;99.90
16700;DHT22;8466;52.286;21.124;2023-04-24T06:36:20;16.00;99.90
16700;DHT22;8466;52.286;21.124;2023-04-24T06:38:55;15.90;99.90
16700;DHT22;8466;52.286;21.124;2023-04-24T06:41:29;15.90;99.90
16700;DHT22;8466;52.286;21.124;2023-04-24T06:44:00;15.80;99.90
16700;DHT22;8466;52.286;21.124;2023-04-24T06:46:32;15.90;99.90
16700;DHT22;8466;52.286;21.124;2023-04-24T06:49:04;15.90;99.90
16700;DHT22;8466;52.286;21.124;2023-04-24T06:51:32;15.90;99.90
16700;DHT22;8466;52.286;21.124;2023-04-24T06:54:03;15.90;99.90
16700;DHT22;8466;52.286;21.124;2023-04-24T06:56:31;15.90;99.90
16700;DHT22;8466;52.286;21.124;2023-04-24T06:59:07;16.00;99.90
16700;DHT22;8466;52.286;21.124;2023-04-24T07:01:37;16.00;99.90
16700;DHT22;8466;52.286;21.124;2023-04-24T07:04:06;16.10;99.90
16700;DHT22;8466;52.286;21.124;2023-04-24T07:06:35;16.10;99.90
16700;DHT22;8466;52.286;21.124;2023-04-24T07:09:06;16.20;99.90
16700;DHT22;8466;52.286;21.124;2023-04-24T07:11:36;16.20;99.90
16700;DHT22;8466;52.286;21.124;2023-04-24T07:14:07;16.30;99.90
16700;DHT22;8466;52.286;21.124;2023-04-24T07:16:37;16.50;99.90
16700;DHT22;8466;52.286;21.124;2023-04-24T07:19:06;16.70;99.90
16700;DHT22;8466;52.286;21.124;2023-04-24T07:21:48;17.20;99.90
16700;DHT22;8466;52.286;21.124;2023-04-24T07:24:18;17.60;99.80
16700;DHT22;8466;52.286;21.124;2023-04-24T07:26:51;17.90;99.00
16700;DHT22;8466;52.286;21.124;2023-04-24T07:29:20;18.00;98.60
16700;DHT22;8466;52.286;21.124;2023-04-24T07:31:49;18.10;98.50
16700;DHT22;8466;52.286;21.124;2023-04-24T07:34:18;18.20;98.30
16700;DHT22;8466;52.286;21.124;2023-04-24T07:36:47;18.30;98.20
16700;DHT22;8466;52.286;21.124;2023-04-24T07:39:15;18.40;98.30
16700;DHT22;8466;52.286;21.124;2023-04-24T07:42:11;18.60;97.50
16700;DHT22;8466;52.286;21.124;2023-04-24T07:44:39;18.90;97.50
16700;DHT22;8466;52.286;21.124;2023-04-24T07:47:08;19.20;95.60
16700;DHT22;8466;52.286;21.124;2023-04-24T07:49:37;19.40;95.80
16700;DHT22;8466;52.286;21.124;2023-04-24T07:52:09;19.60;95.10
16700;DHT22;8466;52.286;21.124;2023-04-24T07:54:40;19.80;94.50
16700;DHT22;8466;52.286;21.124;2023-04-24T07:57:11;20.00;94.10
16700;DHT22;8466;52.286;21.124;2023-04-24T07:59:40;20.30;95.10
16700;DHT22;8466;52.286;21.124;2023-04-24T08:02:10;20.60;93.10
16700;DHT22;8466;52.286;21.124;2023-04-24T08:04:39;20.80;92.20
16700;DHT22;8466;52.286;21.124;2023-04-24T08:07:08;21.00;91.40
16700;DHT22;8466;52.286;21.124;2023-04-24T08:09:36;21.20;91.70
16700;DHT22;8466;52.286;21.124;2023-04-24T08:12:06;21.40;91.00
16700;DHT22;8466;52.286;21.124;2023-04-24T08:14:36;21.50;89.90
16700;DHT22;8466;52.286;21.124;2023-04-24T08:17:04;21.70;89.60
16700;DHT22;8466;52.286;21.124;2023-04-24T08:19:33;21.90;90.10
16700;DHT22;8466;52.286;21.124;2023-04-24T08:22:02;22.10;90.20
16700;DHT22;8466;52.286;21.124;2023-04-24T08:24:31;22.30;88.40
16700;DHT22;8466;52.286;21.124;2023-04-24T08:27:00;22.30;86.00
16700;DHT22;8466;52.286;21.124;2023-04-24T08:29:29;22.30;87.10
16700;DHT22;8466;52.286;21.124;2023-04-24T08:31:59;22.50;86.10
16700;DHT22;8466;52.286;21.124;2023-04-24T08:34:28;22.60;86.40
16700;DHT22;8466;52.286;21.124;2023-04-24T08:36:57;22.80;86.40
16700;DHT22;8466;52.286;21.124;2023-04-24T08:39:26;23.00;83.30
16700;DHT22;8466;52.286;21.124;2023-04-24T08:41:55;23.20;84.50
16700;DHT22;8466;52.286;21.124;2023-04-24T08:44:24;23.40;81.80
16700;DHT22;8466;52.286;21.124;2023-04-24T08:46:54;23.50;78.50
16700;DHT22;8466;52.286;21.124;2023-04-24T08:49:25;23.60;80.50
16700;DHT22;8466;52.286;21.124;2023-04-24T08:51:55;23.70;79.90
16700;DHT22;8466;52.286;21.124;2023-04-24T08:54:27;23.90;77.50
16700;DHT22;8466;52.286;21.124;2023-04-24T08:56:59;24.00;74.20
16700;DHT22;8466;52.286;21.124;2023-04-24T08:59:31;24.10;73.30
16700;DHT22;8466;52.286;21.124;2023-04-24T09:02:04;24.00;73.30
16700;DHT22;8466;52.286;21.124;2023-04-24T09:04:35;24.00;72.10
16700;DHT22;8466;52.286;21.124;2023-04-24T09:07:06;24.10;74.30
16700;DHT22;8466;52.286;21.124;2023-04-24T09:09:38;24.30;74.30
16700;DHT22;8466;52.286;21.124;2023-04-24T09:12:08;24.50;73.40
16700;DHT22;8466;52.286;21.124;2023-04-24T09:14:37;24.50;72.60
16700;DHT22;8466;52.286;21.124;2023-04-24T09:17:09;24.40;73.90
16700;DHT22;8466;52.286;21.124;2023-04-24T09:19:41;24.30;74.80
16700;DHT22;8466;52.286;21.124;2023-04-24T09:22:11;24.20;74.20
16700;DHT22;8466;52.286;21.124;2023-04-24T09:24:40;24.10;73.20
16700;DHT22;8466;52.286;21.124;2023-04-24T09:27:11;24.00;73.00
16700;DHT22;8466;52.286;21.124;2023-04-24T09:29:54;23.90;74.00
16700;DHT22;8466;52.286;21.124;2023-04-24T09:32:23;23.80;73.90
16700;DHT22;8466;52.286;21.124;2023-04-24T09:35:08;23.60;74.20
16700;DHT22;8466;52.286;21.124;2023-04-24T09:37:38;23.40;76.20
16700;DHT22;8466;52.286;21.124;2023-04-24T09:40:13;23.20;75.00
16700;DHT22;8466;52.286;21.124;2023-04-24T09:42:45;23.20;76.30
16700;DHT22;8466;52.286;21.124;2023-04-24T09:45:15;23.10;76.50
16700;DHT22;8466;52.286;21.124;2023-04-24T09:47:43;23.10;75.30
16700;DHT22;8466;52.286;21.124;2023-04-24T09:50:16;23.00;75.10
16700;DHT22;8466;52.286;21.124;2023-04-24T09:52:57;22.90;75.10
16700;DHT22;8466;52.286;21.124;2023-04-24T09:55:26;22.80;73.60
16700;DHT22;8466;52.286;21.124;2023-04-24T09:57:56;22.70;72.60
16700;DHT22;8466;52.286;21.124;2023-04-24T10:00:29;22.80;75.00
16700;DHT22;8466;52.286;21.124;2023-04-24T10:02:59;22.70;72.70
16700;DHT22;8466;52.286;21.124;2023-04-24T10:05:32;22.70;73.00
16700;DHT22;8466;52.286;21.124;2023-04-24T10:08:02;22.70;74.40
16700;DHT22;8466;52.286;21.124;2023-04-24T10:10:33;22.70;74.60
16700;DHT22;8466;52.286;21.124;2023-04-24T10:13:02;22.70;73.00
16700;DHT22;8466;52.286;21.124;2023-04-24T10:15:32;22.60;74.90
16700;DHT22;8466;52.286;21.124;2023-04-24T10:18:02;22.60;74.10
16700;DHT22;8466;52.286;21.124;2023-04-24T10:20:36;22.50;74.30
16700;DHT22;8466;52.286;21.124;2023-04-24T10:23:05;22.40;73.20
16700;DHT22;8466;52.286;21.124;2023-04-24T10:25:35;22.40;73.30
16700;DHT22;8466;52.286;21.124;2023-04-24T10:28:04;22.40;72.70
16700;DHT22;8466;52.286;21.124;2023-04-24T10:30:37;22.40;73.20
16700;DHT22;8466;52.286;21.124;2023-04-24T10:33:08;22.40;75.20
16700;DHT22;8466;52.286;21.124;2023-04-24T10:35:41;22.30;76.70
16700;DHT22;8466;52.286;21.124;2023-04-24T10:38:12;22.30;76.00
16700;DHT22;8466;52.286;21.124;2023-04-24T10:40:42;22.40;70.30
16700;DHT22;8466;52.286;21.124;2023-04-24T10:43:16;22.50;72.70
16700;DHT22;8466;52.286;21.124;2023-04-24T10:46:01;22.70;71.50
16700;DHT22;8466;52.286;21.124;2023-04-24T10:48:31;22.80;71.70
16700;DHT22;8466;52.286;21.124;2023-04-24T10:51:01;22.90;73.20
16700;DHT22;8466;52.286;21.124;2023-04-24T10:53:30;23.00;68.60
16700;DHT22;8466;52.286;21.124;2023-04-24T10:56:02;23.10;68.40
16700;DHT22;8466;52.286;21.124;2023-04-24T10:58:39;23.30;67.70
16700;DHT22;8466;52.286;21.124;2023-04-24T11:01:23;23.40;66.30
16700;DHT22;8466;52.286;21.124;2023-04-24T11:03:57;23.50;64.90
16700;DHT22;8466;52.286;21.124;2023-04-24T11:06:32;23.60;66.90
16700;DHT22;8466;52.286;21.124;2023-04-24T11:09:05;23.70;66.70
16700;DHT22;8466;52.286;21.124;2023-04-24T11:15:01;24.00;66.20
16700;DHT22;8466;52.286;21.124;2023-04-24T11:17:34;24.20;62.80
16700;DHT22;8466;52.286;21.124;2023-04-24T11:20:06;24.30;62.20
16700;DHT22;8466;52.286;21.124;2023-04-24T11:22:54;24.50;60.30
16700;DHT22;8466;52.286;21.124;2023-04-24T11:25:25;24.70;61.60
16700;DHT22;8466;52.286;21.124;2023-04-24T11:28:04;24.90;60.60
16700;DHT22;8466;52.286;21.124;2023-04-24T11:30:33;25.20;61.00
16700;DHT22;8466;52.286;21.124;2023-04-24T11:33:04;25.40;60.10
16700;DHT22;8466;52.286;21.124;2023-04-24T11:35:36;25.50;61.60
16700;DHT22;8466;52.286;21.124;2023-04-24T11:38:10;25.60;58.30
16700;DHT22;8466;52.286;21.124;2023-04-24T11:40:51;25.70;58.70
16700;DHT22;8466;52.286;21.124;2023-04-24T11:43:20;25.60;58.80
16700;DHT22;8466;52.286;21.124;2023-04-24T11:45:50;25.70;58.20
16700;DHT22;8466;52.286;21.124;2023-04-24T11:48:20;25.80;59.20
16700;DHT22;8466;52.286;21.124;2023-04-24T11:50:50;25.90;60.10
16700;DHT22;8466;52.286;21.124;2023-04-24T11:53:21;26.10;60.50
16700;DHT22;8466;52.286;21.124;2023-04-24T11:55:50;26.30;58.80
16700;DHT22;8466;52.286;21.124;2023-04-24T11:58:21;26.40;58.40
16700;DHT22;8466;52.286;21.124;2023-04-24T12:00:56;26.50;57.00
16700;DHT22;8466;52.286;21.124;2023-04-24T12:03:26;26.50;56.80
16700;DHT22;8466;52.286;21.124;2023-04-24T12:06:04;26.50;57.80
16700;DHT22;8466;52.286;21.124;2023-04-24T12:08:36;26.50;58.90
16700;DHT22;8466;52.286;21.124;2023-04-24T12:11:07;26.50;57.50
16700;DHT22;8466;52.286;21.124;2023-04-24T12:13:36;26.50;56.30
16700;DHT22;8466;52.286;21.124;2023-04-24T12:16:09;26.50;57.40
16700;DHT22;8466;52.286;21.124;2023-04-24T12:18:50;26.50;56.20
16700;DHT22;8466;52.286;21.124;2023-04-24T12:21:29;26.30;55.00
16700;DHT22;8466;52.286;21.124;2023-04-24T12:24:08;25.90;56.20
16700;DHT22;8466;52.286;21.124;2023-04-24T12:26:43;26.00;56.50
16700;DHT22;8466;52.286;21.124;2023-04-24T12:29:23;26.00;57.40
16700;DHT22;8466;52.286;21.124;2023-04-24T12:31:55;26.00;58.00
16700;DHT22;8466;52.286;21.124;2023-04-24T12:34:25;26.20;57.50
16700;DHT22;8466;52.286;21.124;2023-04-24T12:36:54;26.30;54.60
16700;DHT22;8466;52.286;21.124;2023-04-24T12:39:25;26.30;56.10
16700;DHT22;8466;52.286;21.124;2023-04-24T12:41:57;26.30;56.10
16700;DHT22;8466;52.286;21.124;2023-04-24T12:44:30;26.20;52.30
16700;DHT22;8466;52.286;21.124;2023-04-24T12:47:01;26.30;52.40
16700;DHT22;8466;52.286;21.124;2023-04-24T12:49:32;26.30;53.20
16700;DHT22;8466;52.286;21.124;2023-04-24T12:52:24;26.40;51.10
16700;DHT22;8466;52.286;21.124;2023-04-24T12:54:57;26.50;51.70
16700;DHT22;8466;52.286;21.124;2023-04-24T12:57:27;26.50;52.40
16700;DHT22;8466;52.286;21.124;2023-04-24T12:59:57;26.50;52.70
16700;DHT22;8466;52.286;21.124;2023-04-24T13:02:30;26.60;53.10
16700;DHT22;8466;52.286;21.124;2023-04-24T13:05:00;26.70;53.30
16700;DHT22;8466;52.286;21.124;2023-04-24T13:07:31;26.60;57.40
16700;DHT22;8466;52.286;21.124;2023-04-24T13:10:30;26.40;58.50
16700;DHT22;8466;52.286;21.124;2023-04-24T13:16:51;25.80;59.70
16700;DHT22;8466;52.286;21.124;2023-04-24T13:19:21;25.60;61.40
16700;DHT22;8466;52.286;21.124;2023-04-24T13:21:55;25.50;61.40
16700;DHT22;8466;52.286;21.124;2023-04-24T13:24:24;25.40;60.70
16700;DHT22;8466;52.286;21.124;2023-04-24T13:26:56;25.20;61.90
16700;DHT22;8466;52.286;21.124;2023-04-24T13:29:25;25.10;62.80
16700;DHT22;8466;52.286;21.124;2023-04-24T13:31:54;24.90;61.40
16700;DHT22;8466;52.286;21.124;2023-04-24T13:34:24;24.70;60.70
16700;DHT22;8466;52.286;21.124;2023-04-24T13:36:54;24.60;62.20
16700;DHT22;8466;52.286;21.124;2023-04-24T13:39:24;24.60;60.10
16700;DHT22;8466;52.286;21.124;2023-04-24T13:41:53;24.50;61.40
16700;DHT22;8466;52.286;21.124;2023-04-24T13:44:23;24.30;62.00
16700;DHT22;8466;52.286;21.124;2023-04-24T13:46:53;24.00;62.20
16700;DHT22;8466;52.286;21.124;2023-04-24T13:49:24;23.80;63.10
16700;DHT22;8466;52.286;21.124;2023-04-24T13:51:54;23.60;63.30
16700;DHT22;8466;52.286;21.124;2023-04-24T13:54:23;23.40;63.80
16700;DHT22;8466;52.286;21.124;2023-04-24T13:56:56;23.20;64.70
16700;DHT22;8466;52.286;21.124;2023-04-24T13:59:26;23.00;65.20
16700;DHT22;8466;52.286;21.124;2023-04-24T14:01:55;22.70;66.00
16700;DHT22;8466;52.286;21.124;2023-04-24T14:04:24;22.40;73.60
16700;DHT22;8466;52.286;21.124;2023-04-24T14:06:53;22.20;76.70
16700;DHT22;8466;52.286;21.124;2023-04-24T14:09:22;22.00;76.00
16700;DHT22;8466;52.286;21.124;2023-04-24T14:11:51;21.70;76.90
16700;DHT22;8466;52.286;21.124;2023-04-24T14:14:20;21.60;81.50
16700;DHT22;8466;52.286;21.124;2023-04-24T14:16:50;21.60;81.30
16700;DHT22;8466;52.286;21.124;2023-04-24T14:19:19;21.60;79.40
16700;DHT22;8466;52.286;21.124;2023-04-24T14:21:48;21.70;76.80
16700;DHT22;8466;52.286;21.124;2023-04-24T14:24:16;21.90;76.50
16700;DHT22;8466;52.286;21.124;2023-04-24T14:26:47;22.10;70.50
16700;DHT22;8466;52.286;21.124;2023-04-24T14:29:16;22.30;68.40
16700;DHT22;8466;52.286;21.124;2023-04-24T14:31:45;22.30;69.60
16700;DHT22;8466;52.286;21.124;2023-04-24T14:34:15;22.40;67.10
16700;DHT22;8466;52.286;21.124;2023-04-24T14:36:47;22.60;66.90
16700;DHT22;8466;52.286;21.124;2023-04-24T14:39:16;22.70;66.90
16700;DHT22;8466;52.286;21.124;2023-04-24T14:41:57;22.90;64.30
16700;DHT22;8466;52.286;21.124;2023-04-24T14:44:40;23.00;65.20
16700;DHT22;8466;52.286;21.124;2023-04-24T14:47:09;23.20;65.00
16700;DHT22;8466;52.286;21.124;2023-04-24T14:49:42;23.30;64.70
16700;DHT22;8466;52.286;21.124;2023-04-24T14:52:20;23.40;63.50
16700;DHT22;8466;52.286;21.124;2023-04-24T14:54:49;23.60;63.20
16700;DHT22;8466;52.286;21.124;2023-04-24T14:57:18;23.70;62.90
16700;DHT22;8466;52.286;21.124;2023-04-24T14:59:47;23.80;62.50
16700;DHT22;8466;52.286;21.124;2023-04-24T15:02:17;24.00;62.00
16700;DHT22;8466;52.286;21.124;2023-04-24T15:04:49;24.10;61.00
16700;DHT22;8466;52.286;21.124;2023-04-24T15:07:19;24.30;60.10
16700;DHT22;8466;52.286;21.124;2023-04-24T15:09:48;24.30;60.20
16700;DHT22;8466;52.286;21.124;2023-04-24T15:12:17;24.30;58.30
16700;DHT22;8466;52.286;21.124;2023-04-24T15:14:45;24.20;58.50
16700;DHT22;8466;52.286;21.124;2023-04-24T15:17:14;24.10;58.60
16700;DHT22;8466;52.286;21.124;2023-04-24T15:19:43;24.00;58.20
16700;DHT22;8466;52.286;21.124;2023-04-24T15:22:14;23.60;58.70
16700;DHT22;8466;52.286;21.124;2023-04-24T15:24:43;23.30;59.60
16700;DHT22;8466;52.286;21.124;2023-04-24T15:27:11;23.00;60.30
16700;DHT22;8466;52.286;21.124;2023-04-24T15:29:41;22.70;58.40
16700;DHT22;8466;52.286;21.124;2023-04-24T15:32:10;22.40;58.50
16700;DHT22;8466;52.286;21.124;2023-04-24T15:34:39;22.10;59.50
16700;DHT22;8466;52.286;21.124;2023-04-24T15:37:13;21.80;60.90
16700;DHT22;8466;52.286;21.124;2023-04-24T15:39:44;21.60;60.90
16700;DHT22;8466;52.286;21.124;2023-04-24T15:42:13;21.30;62.00
16700;DHT22;8466;52.286;21.124;2023-04-24T15:44:42;21.10;62.10
16700;DHT22;8466;52.286;21.124;2023-04-24T15:47:12;21.00;62.80
16700;DHT22;8466;52.286;21.124;2023-04-24T15:49:41;20.70;64.00
16700;DHT22;8466;52.286;21.124;2023-04-24T15:52:10;20.60;65.20
16700;DHT22;8466;52.286;21.124;2023-04-24T15:54:41;20.40;64.10
16700;DHT22;8466;52.286;21.124;2023-04-24T15:57:12;20.20;64.70
16700;DHT22;8466;52.286;21.124;2023-04-24T15:59:41;20.10;65.70
16700;DHT22;8466;52.286;21.124;2023-04-24T16:02:12;20.00;66.00
16700;DHT22;8466;52.286;21.124;2023-04-24T16:04:45;19.90;67.60
16700;DHT22;8466;52.286;21.124;2023-04-24T16:07:15;19.70;66.70
16700;DHT22;8466;52.286;21.124;2023-04-24T16:09:45;19.70;66.80
16700;DHT22;8466;52.286;21.124;2023-04-24T16:12:14;19.50;67.30